Neapolis, Ohio
Current Conditions -  °F | °C
As of 2:52 PM on Sunday 25 Jan 2015 (Local Time) from KTOL Reporting Station
Light Snow Light Snow  
Wind Chill:   Ceiling: 2000
Heat Index: 23°   Visibility: 1.5mi
Dew Point: 17°   Wind: 20mph
Humidity: 78%   Direction: 70°ENE
Pressure: 29.84"   Gusts: 26mph
Location:  41.49°N, 83.87°W
Report Text: KTOL 251952Z 07017G23KT 1 1/2SM -SN BKN020 BKN026 OVC032 M05/M08 A2984 RMK AO2 SLP112 P0000 T10501083
Loading
Personal Weather Stations






























Interactive Weather Map New forecast layout! Learn more

10-Day Weather Forecast

Advertisements
Track Severe Weather on mobile